Time;durP1;ratioP1;P1;durP2;ratioP2;P2;SDS_P1;SDS_P2;PMS_P1;PMS_P2;Temp;Humidity;BMP_temperature;BMP_pressure;BME280_temperature;BME280_humidity;BME280_pressure;Samples;Min_cycle;Max_cycle;Signal;HPM_P1;HPM_P2
2021/01/09 00:00:30;;;;;;;22.07;18.77;;;;;;;-1.04;100.00;98102.25;5001636;28;20455;-67
2021/01/09 00:02:57;;;;;;;18.97;16.67;;;;;;;-0.93;100.00;98101.63;5000365;28;20834;-67
2021/01/09 00:05:24;;;;;;;19.83;17.27;;;;;;;-0.91;100.00;98101.53;4998854;28;20600;-68
2021/01/09 00:07:51;;;;;;;19.33;17.23;;;;;;;-0.94;100.00;98107.75;5000256;28;20504;-68
2021/01/09 00:10:18;;;;;;;20.07;17.40;;;;;;;-0.99;100.00;98095.94;5001838;28;20231;-68
2021/01/09 00:12:46;;;;;;;21.20;18.20;;;;;;;-0.95;100.00;98087.00;5000027;28;20772;-67
2021/01/09 00:15:13;;;;;;;21.20;17.07;;;;;;;-1.00;100.00;98108.09;5000268;28;20301;-68
2021/01/09 00:17:41;;;;;;;20.40;18.33;;;;;;;-0.92;100.00;98095.50;5000961;28;20471;-68
2021/01/09 00:20:10;;;;;;;23.63;21.23;;;;;;;-1.04;100.00;98094.44;5000211;28;20217;-68
2021/01/09 00:22:38;;;;;;;23.97;18.90;;;;;;;-1.01;100.00;98098.59;4998925;28;20521;-67
2021/01/09 00:25:08;;;;;;;20.83;16.77;;;;;;;-0.95;100.00;98105.22;5000623;28;20316;-68
2021/01/09 00:27:35;;;;;;;20.63;17.50;;;;;;;-0.93;100.00;98096.41;4998937;28;20526;-69
2021/01/09 00:30:04;;;;;;;22.27;19.87;;;;;;;-0.99;100.00;98103.72;4998592;28;20821;-68
2021/01/09 00:32:31;;;;;;;21.80;17.43;;;;;;;-1.03;100.00;98108.25;4996827;28;20448;-68
2021/01/09 00:34:58;;;;;;;19.60;17.50;;;;;;;-1.02;100.00;98109.94;4998790;28;20228;-68
2021/01/09 00:37:25;;;;;;;20.27;18.13;;;;;;;-1.05;100.00;98108.38;4997305;28;20210;-68
2021/01/09 00:39:52;;;;;;;20.60;17.07;;;;;;;-1.01;100.00;98111.63;5000051;28;20240;-68
2021/01/09 00:42:19;;;;;;;22.97;19.07;;;;;;;-0.94;100.00;98110.34;5001335;28;20521;-68
2021/01/09 00:44:46;;;;;;;21.43;17.40;;;;;;;-0.97;100.00;98110.50;5000759;28;20217;-68
2021/01/09 00:47:14;;;;;;;22.10;17.93;;;;;;;-1.04;100.00;98114.38;4999497;28;20725;-68
2021/01/09 00:49:41;;;;;;;28.03;25.07;;;;;;;-1.06;100.00;98111.03;4999683;28;20494;-68
2021/01/09 00:52:08;;;;;;;21.03;18.77;;;;;;;-1.08;100.00;98105.09;5004475;28;20467;-69
2021/01/09 00:54:37;;;;;;;22.67;20.03;;;;;;;-1.14;100.00;98106.28;5003635;28;20221;-67
2021/01/09 00:57:04;;;;;;;21.83;18.13;;;;;;;-1.08;100.00;98115.50;5000496;28;20208;-69
2021/01/09 00:59:32;;;;;;;19.53;17.27;;;;;;;-1.11;100.00;98120.88;5004088;28;20483;-68
2021/01/09 01:01:59;;;;;;;22.50;18.37;;;;;;;-1.12;100.00;98117.44;5003307;28;20204;-68
2021/01/09 01:04:27;;;;;;;24.20;18.60;;;;;;;-1.18;100.00;98123.81;5003252;28;20276;-69
2021/01/09 01:06:55;;;;;;;26.40;19.63;;;;;;;-1.20;100.00;98125.69;5005124;28;20205;-68
2021/01/09 01:09:22;;;;;;;23.50;18.67;;;;;;;-1.17;100.00;98132.44;5002315;28;20229;-68
2021/01/09 01:11:49;;;;;;;24.47;18.33;;;;;;;-1.14;100.00;98129.69;5003214;28;20209;-68
2021/01/09 01:14:16;;;;;;;26.97;20.87;;;;;;;-1.18;100.00;98134.22;5001974;28;20471;-69
2021/01/09 01:16:44;;;;;;;34.97;25.07;;;;;;;-1.11;100.00;98141.69;5003120;28;20463;-69
2021/01/09 01:19:12;;;;;;;24.17;20.03;;;;;;;-1.14;100.00;98137.47;5003299;28;20209;-68
2021/01/09 01:21:40;;;;;;;23.60;19.13;;;;;;;-1.19;100.00;98142.97;4999821;28;20251;-67
2021/01/09 01:24:08;;;;;;;26.27;19.90;;;;;;;-1.08;100.00;98150.16;5003896;28;20240;-69
2021/01/09 01:26:35;;;;;;;21.97;18.10;;;;;;;-1.10;100.00;98157.22;5002244;28;20456;-68
2021/01/09 01:29:03;;;;;;;28.43;19.40;;;;;;;-1.16;100.00;98152.34;5002883;28;20491;-68
2021/01/09 01:31:31;;;;;;;27.47;20.40;;;;;;;-1.10;100.00;98158.97;5002643;28;20208;-67
2021/01/09 01:33:58;;;;;;;22.57;17.73;;;;;;;-1.08;100.00;98160.56;5001140;28;20240;-68
2021/01/09 01:36:25;;;;;;;21.70;18.20;;;;;;;-0.99;100.00;98159.19;5002443;28;20208;-69
2021/01/09 01:38:53;;;;;;;26.80;20.53;;;;;;;-0.99;100.00;98169.59;5001880;28;20201;-68
2021/01/09 01:41:20;;;;;;;25.07;19.37;;;;;;;-0.86;100.00;98164.53;5003439;28;20201;-68
2021/01/09 01:43:47;;;;;;;23.07;20.13;;;;;;;-1.04;100.00;98167.28;5000819;28;20233;-68
2021/01/09 01:46:15;;;;;;;24.23;19.53;;;;;;;-1.12;100.00;98163.41;5000112;28;20204;-68
2021/01/09 01:48:42;;;;;;;22.00;18.33;;;;;;;-1.05;100.00;98172.53;5002989;28;20439;-68
2021/01/09 01:51:12;;;;;;;25.50;19.37;;;;;;;-1.10;100.00;98166.78;5001942;28;21011;-68
2021/01/09 01:53:40;;;;;;;23.03;17.50;;;;;;;-1.04;100.00;98174.22;5002652;28;20229;-67
2021/01/09 01:56:08;;;;;;;25.97;20.10;;;;;;;-1.20;100.00;98163.84;5003398;28;20210;-68
2021/01/09 01:58:35;;;;;;;26.37;20.23;;;;;;;-1.14;100.00;98167.88;5003546;28;20201;-68
2021/01/09 02:01:02;;;;;;;27.00;19.10;;;;;;;-1.14;100.00;98165.28;5003234;28;20452;-69
2021/01/09 02:03:29;;;;;;;23.50;19.47;;;;;;;-1.15;100.00;98171.41;5002824;28;20228;-69
2021/01/09 02:06:01;;;;;;;25.10;18.73;;;;;;;-1.27;100.00;98167.72;5002488;28;20212;-70
2021/01/09 02:08:31;;;;;;;25.43;19.13;;;;;;;-1.23;100.00;98167.47;5002118;28;20212;-68
2021/01/09 02:11:01;;;;;;;26.20;20.57;;;;;;;-1.25;100.00;98165.84;5001922;28;20229;-68
2021/01/09 02:13:38;;;;;;;25.00;19.23;;;;;;;-1.37;100.00;98167.38;5002383;28;20221;-69
2021/01/09 02:16:05;;;;;;;23.37;18.83;;;;;;;-1.35;100.00;98168.13;5001395;28;20327;-69
2021/01/09 02:18:34;;;;;;;23.13;18.00;;;;;;;-1.42;100.00;98170.25;5002523;28;20636;-69
2021/01/09 02:21:07;;;;;;;19.07;15.27;;;;;;;-1.38;100.00;98157.91;5002609;28;21464;-69
2021/01/09 02:23:34;;;;;;;18.90;15.13;;;;;;;-1.35;100.00;98168.97;5002248;28;20811;-69
2021/01/09 02:26:02;;;;;;;17.17;13.90;;;;;;;-1.32;100.00;98162.78;5001125;28;20825;-68
2021/01/09 02:28:28;;;;;;;18.73;14.77;;;;;;;-1.32;100.00;98158.41;5000755;28;20209;-68
2021/01/09 02:30:59;;;;;;;17.07;13.20;;;;;;;-1.05;100.00;98154.34;4999931;28;20225;-68
2021/01/09 02:33:27;;;;;;;16.20;13.43;;;;;;;-1.15;100.00;98156.63;4999991;28;20232;-68
2021/01/09 02:35:55;;;;;;;15.97;12.43;;;;;;;-1.03;100.00;98155.09;5001275;28;20208;-68
2021/01/09 02:38:22;;;;;;;14.60;12.13;;;;;;;-1.19;100.00;98155.97;5001655;28;20209;-69
2021/01/09 02:40:50;;;;;;;16.53;14.43;;;;;;;-1.12;100.00;98159.06;5000445;28;20202;-67
2021/01/09 02:43:17;;;;;;;15.30;12.97;;;;;;;-1.26;100.00;98162.44;5000656;28;20291;-68
2021/01/09 02:45:44;;;;;;;14.30;12.80;;;;;;;-1.08;100.00;98168.38;4997937;28;20483;-69
2021/01/09 02:48:11;;;;;;;15.43;12.57;;;;;;;-1.13;100.00;98160.00;4999957;28;20444;-68
2021/01/09 02:50:39;;;;;;;14.80;13.13;;;;;;;-1.17;100.00;98164.50;4999970;28;20320;-68
2021/01/09 02:53:06;;;;;;;14.10;12.60;;;;;;;-1.15;100.00;98168.78;4998301;28;20209;-68
2021/01/09 02:55:33;;;;;;;13.70;12.27;;;;;;;-1.05;100.00;98162.13;5000695;28;20290;-69
2021/01/09 02:58:01;;;;;;;14.10;12.50;;;;;;;-1.15;100.00;98161.00;4993077;28;20477;-69
2021/01/09 03:00:28;;;;;;;16.57;13.33;;;;;;;-1.28;100.00;98164.28;5001875;28;20520;-69
2021/01/09 03:02:55;;;;;;;16.27;13.30;;;;;;;-1.24;100.00;98170.13;5001535;28;20634;-69
2021/01/09 03:05:22;;;;;;;19.70;15.13;;;;;;;-1.32;100.00;98167.97;5000525;28;21319;-69
2021/01/09 03:07:49;;;;;;;15.97;14.27;;;;;;;-1.06;100.00;98168.28;5000658;28;20209;-68
2021/01/09 03:10:16;;;;;;;19.50;15.80;;;;;;;-1.16;100.00;98167.94;5000296;28;20225;-69
2021/01/09 03:12:43;;;;;;;20.20;16.27;;;;;;;-1.13;100.00;98166.94;5001191;28;20204;-68
2021/01/09 03:15:12;;;;;;;21.53;17.67;;;;;;;-1.17;100.00;98167.13;5001546;28;20224;-69
2021/01/09 03:17:39;;;;;;;20.53;17.17;;;;;;;-1.28;100.00;98164.28;5001392;28;20551;-68
2021/01/09 03:20:07;;;;;;;20.90;17.33;;;;;;;-1.22;100.00;98179.53;5002821;28;20809;-69
2021/01/09 03:22:34;;;;;;;22.10;18.17;;;;;;;-1.33;100.00;98171.47;4997293;28;20375;-69
2021/01/09 03:25:02;;;;;;;22.73;18.97;;;;;;;-1.24;100.00;98167.53;5000155;28;20322;-69
2021/01/09 03:27:29;;;;;;;21.43;17.87;;;;;;;-1.32;100.00;98173.19;5000868;28;20293;-69
2021/01/09 03:29:56;;;;;;;20.87;16.80;;;;;;;-1.31;100.00;98177.47;5000692;28;20518;-69
2021/01/09 03:32:24;;;;;;;21.00;17.20;;;;;;;-1.35;100.00;98163.78;5000500;28;20212;-68
2021/01/09 03:34:51;;;;;;;19.13;17.03;;;;;;;-1.22;100.00;98173.50;4999478;28;20252;-68
2021/01/09 03:37:18;;;;;;;23.53;17.80;;;;;;;-1.26;100.00;98174.59;5002047;28;20215;-68
2021/01/09 03:39:45;;;;;;;20.17;16.10;;;;;;;-1.20;100.00;98172.50;4995785;28;20229;-69
2021/01/09 03:42:12;;;;;;;20.47;16.97;;;;;;;-1.26;100.00;98167.63;4999546;28;20216;-68
2021/01/09 03:44:39;;;;;;;19.67;17.17;;;;;;;-1.25;100.00;98171.06;5000636;28;20236;-67
2021/01/09 03:47:06;;;;;;;23.57;17.57;;;;;;;-1.23;100.00;98172.66;4999073;28;20443;-69
2021/01/09 03:49:34;;;;;;;20.57;17.67;;;;;;;-1.25;100.00;98173.66;4997629;28;20566;-68
2021/01/09 03:52:01;;;;;;;19.60;17.30;;;;;;;-1.18;100.00;98181.03;5002301;28;20462;-68
2021/01/09 03:54:29;;;;;;;21.27;17.70;;;;;;;-1.20;100.00;98180.28;4999981;28;20688;-68
2021/01/09 03:56:55;;;;;;;21.20;18.17;;;;;;;-1.22;100.00;98179.53;4999271;28;20231;-69
2021/01/09 03:59:22;;;;;;;21.83;17.73;;;;;;;-1.25;100.00;98174.50;5000068;28;20227;-69
2021/01/09 04:01:49;;;;;;;19.63;16.57;;;;;;;-1.19;100.00;98176.78;5000886;28;20581;-68
2021/01/09 04:04:16;;;;;;;18.57;16.47;;;;;;;-1.31;100.00;98175.69;5001426;28;20225;-68
2021/01/09 04:06:44;;;;;;;21.67;16.63;;;;;;;-1.22;100.00;98183.91;5000121;28;20357;-68
2021/01/09 04:09:11;;;;;;;19.50;16.83;;;;;;;-1.38;100.00;98173.50;5000858;28;20208;-68
2021/01/09 04:11:38;;;;;;;20.13;17.43;;;;;;;-1.21;100.00;98182.97;4999447;28;20690;-67
2021/01/09 04:14:06;;;;;;;19.63;17.03;;;;;;;-1.33;100.00;98185.34;5000972;28;20872;-68
2021/01/09 04:16:35;;;;;;;20.73;16.63;;;;;;;-1.35;100.00;98186.31;5001411;28;20236;-68
2021/01/09 04:19:02;;;;;;;22.10;16.73;;;;;;;-1.18;100.00;98194.06;5001390;28;20534;-69
2021/01/09 04:21:29;;;;;;;19.73;16.37;;;;;;;-1.39;100.00;98190.88;5001955;28;20304;-68
2021/01/09 04:23:57;;;;;;;19.67;16.50;;;;;;;-1.43;100.00;98194.56;5001421;28;20248;-69
2021/01/09 04:26:25;;;;;;;18.57;16.60;;;;;;;-1.40;100.00;98204.78;5004440;28;20763;-68
2021/01/09 04:28:52;;;;;;;18.53;16.33;;;;;;;-1.49;100.00;98194.91;5004091;28;20232;-68
2021/01/09 04:31:19;;;;;;;19.97;17.20;;;;;;;-1.50;100.00;98201.03;5003736;28;20845;-69
2021/01/09 04:33:46;;;;;;;18.03;16.03;;;;;;;-1.50;100.00;98204.44;5001909;28;20316;-68
2021/01/09 04:36:13;;;;;;;18.80;16.23;;;;;;;-1.52;100.00;98195.91;5003356;28;20208;-68
2021/01/09 04:38:40;;;;;;;20.83;16.87;;;;;;;-1.36;100.00;98193.31;5005343;28;20216;-68
2021/01/09 04:41:08;;;;;;;17.00;15.20;;;;;;;-1.44;100.00;98205.88;5002525;28;20211;-68
2021/01/09 04:43:35;;;;;;;19.17;16.67;;;;;;;-1.39;100.00;98209.06;5003709;28;20229;-68
2021/01/09 04:46:03;;;;;;;20.07;17.93;;;;;;;-1.36;100.00;98208.91;5002957;28;20227;-68
2021/01/09 04:48:31;;;;;;;19.10;17.10;;;;;;;-1.27;100.00;98207.56;5003805;28;20456;-68
2021/01/09 04:51:00;;;;;;;19.77;16.03;;;;;;;-1.23;100.00;98214.28;5004303;28;20348;-68
2021/01/09 04:53:29;;;;;;;18.63;16.27;;;;;;;-1.35;100.00;98218.38;5002308;28;20257;-69
2021/01/09 04:55:57;;;;;;;18.47;16.00;;;;;;;-1.32;100.00;98212.19;5003471;28;20212;-69
2021/01/09 04:58:25;;;;;;;18.80;16.63;;;;;;;-1.23;100.00;98219.47;5001212;28;20205;-68
2021/01/09 05:00:55;;;;;;;19.10;16.77;;;;;;;-1.21;100.00;98222.84;5003876;28;20217;-69
2021/01/09 05:03:22;;;;;;;19.27;17.17;;;;;;;-1.10;100.00;98222.25;5003011;28;20213;-69
2021/01/09 05:05:49;;;;;;;19.10;17.03;;;;;;;-1.04;100.00;98221.03;5002957;28;20678;-68
2021/01/09 05:08:16;;;;;;;18.50;16.27;;;;;;;-1.21;100.00;98227.19;5001085;28;20440;-70
2021/01/09 05:10:43;;;;;;;19.63;16.57;;;;;;;-1.20;100.00;98227.13;5001922;28;20244;-68
2021/01/09 05:13:10;;;;;;;20.87;16.27;;;;;;;-1.38;100.00;98225.50;5003411;28;20211;-68
2021/01/09 05:15:39;;;;;;;19.60;16.10;;;;;;;-1.36;100.00;98228.84;5003225;28;20208;-68
2021/01/09 05:18:07;;;;;;;17.17;15.37;;;;;;;-1.09;100.00;98234.31;5003487;28;20205;-68
2021/01/09 05:20:34;;;;;;;18.33;16.43;;;;;;;-1.17;100.00;98229.53;4998699;28;20205;-68
2021/01/09 05:23:02;;;;;;;20.10;18.00;;;;;;;-1.23;100.00;98222.09;4998951;28;20209;-68
2021/01/09 05:25:29;;;;;;;19.33;16.97;;;;;;;-1.29;100.00;98230.22;4998935;28;20307;-68
2021/01/09 05:27:58;;;;;;;18.20;16.00;;;;;;;-1.06;100.00;98241.97;4992075;28;20701;-69
2021/01/09 05:30:26;;;;;;;18.73;16.70;;;;;;;-0.98;100.00;98243.28;4994799;28;20236;-68
2021/01/09 05:32:53;;;;;;;20.33;17.43;;;;;;;-1.14;100.00;98236.31;4999165;28;20209;-69
2021/01/09 05:35:20;;;;;;;17.30;15.10;;;;;;;-1.09;100.00;98241.28;4999849;28;20529;-69
2021/01/09 05:37:48;;;;;;;18.90;16.63;;;;;;;-1.12;100.00;98237.09;5000715;28;20201;-69
2021/01/09 05:40:16;;;;;;;16.00;14.30;;;;;;;-1.33;100.00;98233.88;5001583;28;20588;-69
2021/01/09 05:42:43;;;;;;;18.83;16.53;;;;;;;-1.18;100.00;98240.88;5000766;28;20462;-69
2021/01/09 05:45:11;;;;;;;19.83;17.23;;;;;;;-1.15;100.00;98231.22;5003472;28;20217;-69
2021/01/09 05:47:39;;;;;;;18.13;16.23;;;;;;;-1.10;100.00;98242.19;4999674;28;20202;-67
2021/01/09 05:50:08;;;;;;;17.63;15.77;;;;;;;-1.20;100.00;98247.91;5002445;28;20483;-68
2021/01/09 05:52:38;;;;;;;19.40;16.73;;;;;;;-1.27;100.00;98243.13;5002366;28;20232;-68
2021/01/09 05:55:07;;;;;;;18.00;15.33;;;;;;;-1.41;100.00;98244.72;4993514;28;21070;-66
2021/01/09 05:57:35;;;;;;;17.67;15.53;;;;;;;-1.27;100.00;98251.78;4995838;28;20452;-68
2021/01/09 06:00:06;;;;;;;18.30;16.40;;;;;;;-1.29;100.00;98253.63;4994977;28;20205;-68
2021/01/09 06:02:47;;;;;;;18.30;16.27;;;;;;;-1.19;100.00;98254.78;4996679;28;20466;-67
2021/01/09 06:05:16;;;;;;;19.83;17.47;;;;;;;-1.27;100.00;98253.53;4999885;28;20857;-68
2021/01/09 06:07:46;;;;;;;18.73;16.70;;;;;;;-1.38;100.00;98259.28;4997399;28;20213;-70
2021/01/09 06:10:16;;;;;;;19.80;17.70;;;;;;;-1.38;100.00;98259.28;4999716;28;20229;-68
2021/01/09 06:12:58;;;;;;;18.90;16.90;;;;;;;-1.47;100.00;98258.06;4988953;28;20685;-68
2021/01/09 06:15:29;;;;;;;17.90;16.00;;;;;;;-1.30;100.00;98254.53;4993877;28;20550;-69
2021/01/09 06:17:56;;;;;;;19.13;16.67;;;;;;;-1.07;100.00;98268.03;4995866;28;20467;-68
2021/01/09 06:20:26;;;;;;;19.47;16.47;;;;;;;-1.14;100.00;98270.13;4995822;28;20320;-69
2021/01/09 06:22:53;;;;;;;18.93;17.03;;;;;;;-1.38;100.00;98274.91;4999362;28;20794;-69
2021/01/09 06:25:20;;;;;;;18.43;16.53;;;;;;;-1.23;100.00;98276.69;5000486;28;20472;-68
2021/01/09 06:27:50;;;;;;;20.47;17.47;;;;;;;-1.08;100.00;98280.22;4995220;28;20216;-66
2021/01/09 06:30:20;;;;;;;19.40;16.57;;;;;;;-1.30;100.00;98283.16;4997862;28;20228;-67
2021/01/09 06:32:55;;;;;;;17.53;15.60;;;;;;;-0.97;100.00;98281.41;4997421;28;20261;-66
2021/01/09 06:35:22;;;;;;;19.37;16.90;;;;;;;-1.10;100.00;98282.06;4997875;28;20479;-67
2021/01/09 06:37:50;;;;;;;18.77;16.13;;;;;;;-1.10;100.00;98278.63;4998990;28;20824;-66
2021/01/09 06:40:17;;;;;;;20.47;17.57;;;;;;;-1.27;100.00;98282.97;5001478;28;20812;-70
2021/01/09 06:42:46;;;;;;;21.80;16.53;;;;;;;-1.43;100.00;98285.56;5001187;28;20975;-69
2021/01/09 06:45:15;;;;;;;19.73;17.27;;;;;;;-1.55;100.00;98287.03;4997794;28;20237;-71
2021/01/09 06:47:55;;;;;;;19.23;16.47;;;;;;;-1.61;100.00;98293.38;5001240;28;20452;-70
2021/01/09 06:50:33;;;;;;;20.83;17.97;;;;;;;-1.62;100.00;98290.88;5000167;28;20232;-70
2021/01/09 06:53:02;;;;;;;41.93;25.17;;;;;;;-1.61;100.00;98295.97;5000609;28;20212;-68
2021/01/09 06:56:02;;;;;;;27.07;18.20;;;;;;;-1.66;100.00;98292.78;5001284;28;20227;-68
2021/01/09 06:58:32;;;;;;;20.03;17.17;;;;;;;-1.36;100.00;98293.84;4996477;28;20707;-68
2021/01/09 07:01:24;;;;;;;19.07;16.80;;;;;;;-1.17;100.00;98297.16;4999831;28;20873;-67
2021/01/09 07:03:51;;;;;;;21.53;17.47;;;;;;;-1.21;100.00;98302.59;4987707;28;20252;-67
2021/01/09 07:06:51;;;;;;;29.10;22.27;;;;;;;-1.39;100.00;98305.28;5001570;28;20205;-67
2021/01/09 07:09:23;;;;;;;24.17;20.63;;;;;;;-1.40;100.00;98297.53;4999422;28;20696;-68
2021/01/09 07:11:51;;;;;;;22.67;19.90;;;;;;;-1.36;100.00;98299.06;4995816;28;20728;-67
2021/01/09 07:14:18;;;;;;;21.40;19.03;;;;;;;-1.53;100.00;98306.00;5000789;28;20221;-69
2021/01/09 07:16:47;;;;;;;22.77;20.37;;;;;;;-1.58;100.00;98312.34;4999356;28;20228;-68
2021/01/09 07:19:15;;;;;;;21.30;19.03;;;;;;;-1.43;100.00;98316.75;5000452;28;20447;-68
2021/01/09 07:21:44;;;;;;;22.10;18.70;;;;;;;-1.47;100.00;98315.25;5001699;28;20220;-68
2021/01/09 07:24:12;;;;;;;22.90;18.53;;;;;;;-1.66;100.00;98323.97;4999814;28;20748;-68
2021/01/09 07:26:52;;;;;;;26.07;20.87;;;;;;;-1.64;100.00;98321.31;5001649;28;20445;-68
2021/01/09 07:29:24;;;;;;;31.90;23.57;;;;;;;-1.56;100.00;98321.75;4996844;28;20456;-68
2021/01/09 07:31:53;;;;;;;29.30;21.67;;;;;;;-1.46;100.00;98319.53;5002200;28;20243;-68
2021/01/09 07:34:22;;;;;;;22.10;16.53;;;;;;;-1.21;100.00;98323.41;4998580;28;20472;-68
2021/01/09 07:36:53;;;;;;;20.63;17.57;;;;;;;-1.44;100.00;98317.69;5000786;28;20475;-68
2021/01/09 07:39:23;;;;;;;19.70;17.27;;;;;;;-1.33;100.00;98322.28;4998135;28;20204;-68
2021/01/09 07:41:51;;;;;;;22.77;19.43;;;;;;;-1.09;100.00;98321.91;4999110;28;20621;-69
2021/01/09 07:44:19;;;;;;;23.07;17.60;;;;;;;-1.10;100.00;98323.69;5001584;28;20225;-68
2021/01/09 07:46:51;;;;;;;20.47;17.73;;;;;;;-1.32;100.00;98329.19;5000727;28;20443;-68
2021/01/09 07:49:26;;;;;;;20.70;18.50;;;;;;;-1.26;100.00;98328.88;4996657;28;20221;-68
2021/01/09 07:51:54;;;;;;;22.83;17.90;;;;;;;-1.36;100.00;98333.72;4999368;28;20481;-68
2021/01/09 07:54:34;;;;;;;23.80;19.40;;;;;;;-1.39;100.00;98322.63;5000506;28;20513;-67
2021/01/09 07:57:02;;;;;;;21.07;18.57;;;;;;;-1.48;100.00;98332.59;4997974;28;20707;-68
2021/01/09 07:59:29;;;;;;;20.90;18.57;;;;;;;-1.35;100.00;98339.72;5001214;28;20490;-67
2021/01/09 08:01:56;;;;;;;19.87;17.60;;;;;;;-1.49;100.00;98341.31;5004107;28;20432;-68
2021/01/09 08:04:24;;;;;;;38.53;28.60;;;;;;;-1.22;100.00;98340.78;5000686;28;20633;-69
2021/01/09 08:06:52;;;;;;;23.90;18.70;;;;;;;-1.31;100.00;98341.28;4997954;28;20231;-68
2021/01/09 08:09:19;;;;;;;20.50;18.40;;;;;;;-1.43;100.00;98349.69;4999408;28;20214;-67
2021/01/09 08:11:47;;;;;;;19.00;16.50;;;;;;;-1.55;100.00;98353.75;4996230;28;20498;-67
2021/01/09 08:14:15;;;;;;;20.20;17.30;;;;;;;-1.57;100.00;98358.19;5002884;28;20893;-68
2021/01/09 08:16:42;;;;;;;19.33;17.27;;;;;;;-1.46;100.00;98359.34;5001498;28;20582;-67
2021/01/09 08:19:16;;;;;;;24.97;18.73;;;;;;;-1.41;100.00;98371.25;5001675;28;20459;-68
2021/01/09 08:21:46;;;;;;;21.47;17.10;;;;;;;-1.43;100.00;98360.94;5002809;28;20201;-67
2021/01/09 08:24:21;;;;;;;21.50;17.63;;;;;;;-1.31;100.00;98370.72;5002227;28;20480;-68
2021/01/09 08:26:50;;;;;;;19.03;16.07;;;;;;;-1.06;100.00;98381.59;5002079;28;20637;-67
2021/01/09 08:29:18;;;;;;;16.07;13.70;;;;;;;-1.22;100.00;98377.19;5003807;28;20792;-68
2021/01/09 08:31:45;;;;;;;16.37;14.03;;;;;;;-1.29;100.00;98380.19;5004530;28;20947;-67
2021/01/09 08:34:12;;;;;;;14.30;12.63;;;;;;;-1.04;100.00;98384.94;5003557;28;20522;-68
2021/01/09 08:36:41;;;;;;;13.93;12.27;;;;;;;-0.96;100.00;98381.94;5004003;28;20447;-68
2021/01/09 08:39:09;;;;;;;14.83;12.13;;;;;;;-1.07;100.00;98393.75;5001465;28;20450;-68
2021/01/09 08:41:38;;;;;;;14.57;11.97;;;;;;;-1.17;100.00;98387.34;5000534;28;20215;-68
2021/01/09 08:44:05;;;;;;;15.03;13.10;;;;;;;-1.13;100.00;98399.28;5002174;28;20463;-68
2021/01/09 08:46:34;;;;;;;13.17;11.80;;;;;;;-1.12;100.00;98400.97;4997505;28;20459;-68
2021/01/09 08:49:01;;;;;;;12.67;10.97;;;;;;;-1.15;100.00;98414.09;5001783;28;20585;-67
2021/01/09 08:51:29;;;;;;;15.53;12.03;;;;;;;-1.24;100.00;98399.84;5001853;28;20494;-68
2021/01/09 08:53:59;;;;;;;13.03;11.53;;;;;;;-1.28;100.00;98403.53;4996231;28;21251;-67
2021/01/09 08:56:28;;;;;;;12.43;10.77;;;;;;;-1.32;100.00;98407.22;5001286;28;20513;-67
2021/01/09 08:59:00;;;;;;;12.50;11.20;;;;;;;-1.31;100.00;98408.88;5000418;28;20685;-68
2021/01/09 09:01:30;;;;;;;12.63;11.43;;;;;;;-1.35;100.00;98410.78;5000675;28;20205;-67
2021/01/09 09:04:00;;;;;;;13.07;11.77;;;;;;;-1.38;100.00;98415.31;5000995;28;20468;-69
2021/01/09 09:06:29;;;;;;;18.60;15.57;;;;;;;-1.21;100.00;98411.84;5002028;28;20490;-68
2021/01/09 09:08:56;;;;;;;16.70;14.87;;;;;;;-1.36;100.00;98416.91;5000727;28;20958;-70
2021/01/09 09:11:25;;;;;;;19.03;17.23;;;;;;;-1.20;100.00;98416.13;4999990;28;20228;-70
2021/01/09 09:14:06;;;;;;;18.60;15.03;;;;;;;-1.18;100.00;98414.28;5001599;28;20467;-70
2021/01/09 09:16:34;;;;;;;15.37;13.20;;;;;;;-1.04;100.00;98422.22;5001897;28;21030;-68
2021/01/09 09:19:10;;;;;;;20.97;16.93;;;;;;;-1.05;100.00;98417.09;4996869;28;20491;-70
2021/01/09 09:21:42;;;;;;;17.13;13.93;;;;;;;-0.76;100.00;98419.91;5001420;28;20452;-69
2021/01/09 09:24:09;;;;;;;15.20;13.70;;;;;;;-0.64;98.26;98423.63;5000040;28;20844;-68
2021/01/09 09:26:37;;;;;;;16.17;14.47;;;;;;;-0.75;97.37;98434.59;4997414;28;20245;-68
2021/01/09 09:29:05;;;;;;;24.63;17.90;;;;;;;-0.95;98.50;98440.88;5001641;28;20459;-69
2021/01/09 09:31:33;;;;;;;17.97;13.40;;;;;;;-0.83;98.92;98434.19;5001142;28;20264;-67
2021/01/09 09:34:06;;;;;;;15.67;13.83;;;;;;;-0.90;99.71;98439.72;5001881;28;20464;-67
2021/01/09 09:36:36;;;;;;;17.53;15.70;;;;;;;-0.75;97.04;98437.22;4997730;28;20205;-67
2021/01/09 09:39:14;;;;;;;15.77;13.67;;;;;;;-1.07;97.37;98442.34;5000124;28;20216;-68
2021/01/09 09:41:52;;;;;;;14.57;13.07;;;;;;;-0.91;97.46;98445.84;4999900;28;20677;-66
2021/01/09 09:44:19;;;;;;;12.23;10.93;;;;;;;-0.71;95.66;98441.31;5001233;28;20713;-68
2021/01/09 09:46:48;;;;;;;13.43;11.50;;;;;;;-0.59;94.25;98440.66;4997754;28;20216;-68
2021/01/09 09:49:15;;;;;;;13.17;11.87;;;;;;;-0.68;94.21;98446.38;5000283;28;20271;-69
2021/01/09 09:51:43;;;;;;;11.23;10.13;;;;;;;-0.55;94.38;98443.13;4993673;28;20460;-68
2021/01/09 09:54:10;;;;;;;12.67;11.40;;;;;;;-0.33;93.70;98442.78;4995454;28;21026;-67
2021/01/09 09:56:40;;;;;;;12.03;10.67;;;;;;;-0.35;90.46;98445.47;5000711;28;20232;-69
2021/01/09 09:59:09;;;;;;;10.20;9.23;;;;;;;-0.16;88.67;98439.25;5002945;28;20357;-68
2021/01/09 10:01:37;;;;;;;11.37;10.17;;;;;;;-0.21;91.51;98439.50;4998878;28;20468;-69
2021/01/09 10:04:11;;;;;;;13.07;11.77;;;;;;;-0.16;90.00;98440.09;4999352;28;20232;-68
2021/01/09 10:06:39;;;;;;;15.53;13.90;;;;;;;-0.05;88.06;98441.25;5003251;28;20225;-67
2021/01/09 10:09:13;;;;;;;16.83;14.87;;;;;;;0.09;88.48;98449.16;4996368;28;20386;-68
2021/01/09 10:11:41;;;;;;;12.77;11.00;;;;;;;0.28;84.42;98451.56;4996311;28;20220;-67
2021/01/09 10:14:20;;;;;;;33.90;23.13;;;;;;;-0.04;83.60;98438.56;4993140;28;20224;-64
2021/01/09 10:16:47;;;;;;;23.53;16.23;;;;;;;-0.25;85.40;98430.19;4998962;28;20439;-68
2021/01/09 10:19:16;;;;;;;14.80;13.30;;;;;;;-0.18;84.87;98431.53;4992758;28;20471;-68
2021/01/09 10:21:44;;;;;;;17.80;13.47;;;;;;;-0.10;84.48;98428.50;4995093;28;20282;-69
2021/01/09 10:24:12;;;;;;;18.00;13.30;;;;;;;-0.23;84.00;98430.09;4989109;28;20232;-69
2021/01/09 10:26:39;;;;;;;10.70;9.37;;;;;;;-0.11;83.58;98431.16;4993559;28;20213;-68
2021/01/09 10:29:06;;;;;;;11.40;10.20;;;;;;;-0.30;84.36;98427.00;5000881;28;20200;-70
2021/01/09 10:31:34;;;;;;;13.57;10.67;;;;;;;-0.11;84.72;98428.56;5000675;28;20232;-69
2021/01/09 10:34:03;;;;;;;9.60;8.60;;;;;;;-0.18;85.42;98422.88;5000714;28;20233;-68
2021/01/09 10:36:30;;;;;;;9.37;8.57;;;;;;;-0.14;85.13;98429.59;4998755;28;20677;-69
2021/01/09 10:38:58;;;;;;;11.43;9.00;;;;;;;-0.35;84.08;98426.41;4999434;28;20448;-68
2021/01/09 10:41:27;;;;;;;10.80;9.70;;;;;;;-0.34;85.40;98428.09;4989785;28;20536;-68
2021/01/09 10:43:57;;;;;;;10.00;8.97;;;;;;;-0.26;85.04;98419.84;4995275;28;20308;-69
2021/01/09 10:46:26;;;;;;;19.27;15.83;;;;;;;-0.37;85.59;98429.09;4992007;28;20733;-66
2021/01/09 10:48:53;;;;;;;9.40;8.20;;;;;;;-0.21;85.90;98420.41;4997953;28;20221;-68
2021/01/09 10:51:22;;;;;;;9.60;8.70;;;;;;;0.06;84.30;98428.47;4995321;28;20605;-66
2021/01/09 10:53:49;;;;;;;11.30;10.10;;;;;;;0.22;83.76;98427.59;4993179;28;20919;-66
2021/01/09 10:56:17;;;;;;;12.43;10.30;;;;;;;0.34;81.65;98431.25;4999617;28;20213;-69
2021/01/09 10:58:45;;;;;;;9.97;8.77;;;;;;;0.41;80.30;98427.38;4994824;28;20224;-68
2021/01/09 11:01:12;;;;;;;12.93;10.33;;;;;;;0.18;80.48;98432.13;4999702;28;20695;-67
2021/01/09 11:03:42;;;;;;;8.00;7.20;;;;;;;-0.04;79.94;98432.50;4997826;28;20712;-68
2021/01/09 11:06:10;;;;;;;8.70;7.77;;;;;;;-0.06;81.80;98424.78;5000077;28;20682;-69
2021/01/09 11:08:37;;;;;;;9.40;8.33;;;;;;;-0.21;81.43;98418.66;5001704;28;20205;-70
2021/01/09 11:11:04;;;;;;;10.10;9.13;;;;;;;-0.24;82.47;98420.59;4997784;28;20228;-68
2021/01/09 11:13:31;;;;;;;9.23;7.27;;;;;;;-0.06;80.43;98419.56;4998428;28;20237;-69
2021/01/09 11:15:59;;;;;;;11.37;9.03;;;;;;;0.04;81.58;98427.72;5000463;28;20220;-68
2021/01/09 11:18:26;;;;;;;9.47;8.53;;;;;;;0.17;79.77;98420.03;4998363;28;20209;-68